createdAt,value
2022-08-19T00:01:55.931Z,13.25
2022-08-19T00:04:48.908Z,13.57
2022-08-19T00:07:40.365Z,12.82
2022-08-19T00:10:30.386Z,13.75
2022-08-19T00:13:20.485Z,13.95
2022-08-19T00:16:10.438Z,13.65
2022-08-19T00:19:00.769Z,14.20
2022-08-19T00:21:51.271Z,14.65
2022-08-19T00:24:42.149Z,14.20
2022-08-19T00:27:41.399Z,14.30
2022-08-19T00:30:31.663Z,14.02
2022-08-19T00:33:22.631Z,13.90
2022-08-19T00:36:13.123Z,13.95
2022-08-19T00:39:03.970Z,14.05
2022-08-19T00:41:54.489Z,13.13
2022-08-19T00:44:44.958Z,13.80
2022-08-19T00:47:34.770Z,13.75
2022-08-19T00:50:24.881Z,14.70
2022-08-19T00:53:20.265Z,13.88
2022-08-19T00:56:11.441Z,15.07
2022-08-19T00:59:02.709Z,13.95
2022-08-19T01:01:53.418Z,14.70
2022-08-19T01:04:43.752Z,13.98
2022-08-19T01:07:38.191Z,13.35
2022-08-19T01:10:36.673Z,13.95
2022-08-19T01:13:49.505Z,14.07
2022-08-19T01:16:41.933Z,14.45
2022-08-19T01:19:44.343Z,14.60
2022-08-19T01:22:41.452Z,14.45
2022-08-19T01:25:48.364Z,13.98
2022-08-19T01:28:39.875Z,13.68
2022-08-19T01:31:33.655Z,13.73
2022-08-19T01:34:24.573Z,13.90
2022-08-19T01:37:15.436Z,13.90
2022-08-19T01:40:15.714Z,13.77
2022-08-19T01:43:06.757Z,14.75
2022-08-19T01:45:56.965Z,14.20
2022-08-19T01:48:47.727Z,15.40
2022-08-19T01:51:40.189Z,14.38
2022-08-19T01:54:30.527Z,14.38
2022-08-19T01:57:20.946Z,15.07
2022-08-19T02:00:15.131Z,14.18
2022-08-19T02:03:05.600Z,14.07
2022-08-19T02:06:00.959Z,15.65
2022-08-19T02:08:51.316Z,14.30
2022-08-19T02:11:44.458Z,14.63
2022-08-19T02:14:36.078Z,15.15
2022-08-19T02:17:26.384Z,15.27
2022-08-19T02:20:17.270Z,15.30
2022-08-19T02:23:13.892Z,15.80
2022-08-19T02:26:07.384Z,16.55
2022-08-19T02:28:58.561Z,15.10
2022-08-19T02:31:50.412Z,15.10
2022-08-19T02:34:41.388Z,16.02
2022-08-19T02:37:50.118Z,15.63
2022-08-19T02:40:40.305Z,16.75
2022-08-19T02:43:33.794Z,17.17
2022-08-19T02:46:27.970Z,17.15
2022-08-19T02:49:18.893Z,17.00
2022-08-19T02:52:09.203Z,17.48
2022-08-19T02:54:59.555Z,17.17
2022-08-19T02:57:49.696Z,18.08
2022-08-19T03:00:47.702Z,17.75
2022-08-19T03:03:38.770Z,17.15
2022-08-19T03:06:29.333Z,17.50
2022-08-19T03:09:21.048Z,17.27
2022-08-19T03:12:11.778Z,16.83
2022-08-19T03:15:01.855Z,16.73
2022-08-19T03:17:52.307Z,17.73
2022-08-19T03:20:48.394Z,18.08
2022-08-19T03:23:38.294Z,18.33
2022-08-19T03:26:29.755Z,18.35
2022-08-19T03:29:30.226Z,18.90
2022-08-19T03:32:32.789Z,18.40
2022-08-19T03:35:23.394Z,20.25
2022-08-19T03:38:13.803Z,20.50
2022-08-19T03:41:07.279Z,20.48
2022-08-19T03:43:58.236Z,19.17
2022-08-19T03:46:51.363Z,19.63
2022-08-19T03:49:41.634Z,20.20
2022-08-19T03:52:31.626Z,20.65
2022-08-19T03:55:21.538Z,20.10
2022-08-19T03:58:12.224Z,19.88
2022-08-19T04:01:02.510Z,19.48
2022-08-19T04:03:53.655Z,19.88
2022-08-19T04:06:45.013Z,19.85
2022-08-19T04:09:37.486Z,21.23
2022-08-19T04:12:28.085Z,19.90
2022-08-19T04:15:18.169Z,19.90
2022-08-19T04:18:10.739Z,19.38
2022-08-19T04:21:01.783Z,20.35
2022-08-19T04:23:52.457Z,20.13
2022-08-19T04:26:47.157Z,19.92
2022-08-19T04:29:40.378Z,20.83
2022-08-19T04:32:32.893Z,21.17
2022-08-19T04:35:25.009Z,20.35
2022-08-19T04:38:17.523Z,20.10
2022-08-19T04:41:26.300Z,23.15
2022-08-19T04:44:19.068Z,22.27
2022-08-19T04:47:10.996Z,21.63
2022-08-19T04:50:01.774Z,22.02
2022-08-19T04:52:52.652Z,23.23
2022-08-19T04:55:43.484Z,21.70
2022-08-19T04:58:34.834Z,23.27
2022-08-19T05:01:29.333Z,22.02
2022-08-19T05:04:21.388Z,22.52
2022-08-19T05:07:12.466Z,22.05
2022-08-19T05:10:05.462Z,22.70
2022-08-19T05:12:55.821Z,23.95
2022-08-19T05:15:55.265Z,22.73
2022-08-19T05:19:04.687Z,21.95
2022-08-19T05:22:27.187Z,22.25
2022-08-19T05:25:20.840Z,22.50
2022-08-19T05:28:11.208Z,21.75
2022-08-19T05:31:01.222Z,22.98
2022-08-19T05:33:51.336Z,23.05
2022-08-19T05:36:44.137Z,22.40
2022-08-19T05:39:37.501Z,23.30
2022-08-19T05:42:27.565Z,22.80
2022-08-19T05:45:17.800Z,23.15
2022-08-19T05:48:07.836Z,23.30
2022-08-19T05:50:57.860Z,22.50
2022-08-19T05:53:48.017Z,22.70
2022-08-19T05:56:38.954Z,22.23
2022-08-19T05:59:29.499Z,23.05
2022-08-19T06:02:21.634Z,24.30
2022-08-19T06:05:12.269Z,23.17
2022-08-19T06:08:01.920Z,22.10
2022-08-19T06:10:52.183Z,23.00
2022-08-19T06:13:43.241Z,23.70
2022-08-19T06:16:36.026Z,21.80
2022-08-19T06:19:27.248Z,22.90
2022-08-19T06:22:17.627Z,22.60
2022-08-19T06:25:10.045Z,23.45
2022-08-19T06:28:14.713Z,23.92
2022-08-19T06:31:09.224Z,23.40
2022-08-19T06:33:59.035Z,23.40
2022-08-19T06:36:52.041Z,23.75
2022-08-19T06:39:44.596Z,22.08
2022-08-19T06:42:35.701Z,23.38
2022-08-19T06:45:34.984Z,22.48
2022-08-19T06:48:26.241Z,21.85
2022-08-19T06:51:21.111Z,21.70
2022-08-19T06:54:19.422Z,22.52
2022-08-19T06:57:14.316Z,20.88
2022-08-19T07:00:09.741Z,21.83
2022-08-19T07:03:07.657Z,21.40
2022-08-19T07:06:07.179Z,21.17
2022-08-19T07:09:00.237Z,20.77
2022-08-19T07:11:53.520Z,20.13
2022-08-19T07:14:46.893Z,18.73
2022-08-19T07:17:40.133Z,17.40
2022-08-19T07:20:31.885Z,17.98
2022-08-19T07:23:22.936Z,17.77
2022-08-19T07:26:20.550Z,16.98
2022-08-19T07:32:11.556Z,16.77
2022-08-19T07:35:05.553Z,16.48
2022-08-19T07:37:55.951Z,17.02
2022-08-19T07:40:47.110Z,17.00
2022-08-19T07:43:37.830Z,18.15
2022-08-19T07:46:27.769Z,15.63
2022-08-19T07:49:20.130Z,17.45
2022-08-19T07:52:10.724Z,17.20
2022-08-19T07:55:04.470Z,18.58
2022-08-19T07:57:54.868Z,17.88
2022-08-19T08:00:47.301Z,18.23
2022-08-19T08:03:56.291Z,17.98
2022-08-19T08:07:05.046Z,17.73
2022-08-19T08:13:09.522Z,17.25
2022-08-19T08:15:57.494Z,16.80
2022-08-19T08:18:50.370Z,17.05
2022-08-19T08:24:36.946Z,17.23
2022-08-19T08:27:32.017Z,17.08
2022-08-19T08:30:26.389Z,17.48
2022-08-19T08:33:33.885Z,17.27
2022-08-19T08:36:26.324Z,16.95
2022-08-19T08:39:19.482Z,16.13
2022-08-19T08:42:21.891Z,16.98
2022-08-19T08:45:18.004Z,15.85
2022-08-19T08:48:42.165Z,16.95
2022-08-19T08:51:59.346Z,16.77
2022-08-19T08:54:55.409Z,17.88
2022-08-19T08:57:52.272Z,17.10
2022-08-19T09:00:46.756Z,16.33
2022-08-19T09:03:41.008Z,17.23
2022-08-19T09:06:41.329Z,16.17
2022-08-19T09:09:42.014Z,15.75
2022-08-19T09:12:53.972Z,15.57
2022-08-19T09:15:57.653Z,16.60
2022-08-19T09:18:53.351Z,15.60
2022-08-19T09:21:44.066Z,16.08
2022-08-19T09:24:33.935Z,15.27
2022-08-19T09:27:42.058Z,14.85
2022-08-19T09:30:41.713Z,15.52
2022-08-19T09:33:32.173Z,13.45
2022-08-19T09:36:34.757Z,13.60
2022-08-19T09:39:25.373Z,14.40
2022-08-19T09:42:30.529Z,13.70
2022-08-19T09:45:25.661Z,14.43
2022-08-19T09:48:19.124Z,13.68
2022-08-19T09:51:18.534Z,14.10
2022-08-19T09:54:11.582Z,13.45
2022-08-19T09:57:03.801Z,13.60
2022-08-19T09:59:57.735Z,14.07
2022-08-19T10:02:48.241Z,13.27
2022-08-19T10:05:55.306Z,13.60
2022-08-19T10:08:50.096Z,13.90
2022-08-19T10:11:46.978Z,12.88
2022-08-19T10:14:43.176Z,13.27
2022-08-19T10:17:36.071Z,12.07
2022-08-19T10:20:26.936Z,13.13
2022-08-19T10:23:17.784Z,12.07
2022-08-19T10:26:08.558Z,12.40
2022-08-19T10:28:58.772Z,11.75
2022-08-19T10:32:01.253Z,11.70
2022-08-19T10:34:57.203Z,9.95
2022-08-19T10:37:52.658Z,9.60
2022-08-19T10:40:47.855Z,10.50
2022-08-19T10:43:39.259Z,9.85
2022-08-19T10:46:33.983Z,8.20
2022-08-19T10:49:25.112Z,7.85
2022-08-19T10:52:34.013Z,6.13
2022-08-19T10:55:43.770Z,6.15
2022-08-19T10:58:33.860Z,5.65
2022-08-19T11:01:23.896Z,6.35
2022-08-19T11:04:18.521Z,6.28
2022-08-19T11:07:09.304Z,6.93
2022-08-19T11:09:59.808Z,6.78
2022-08-19T11:12:55.573Z,7.45
2022-08-19T11:15:48.408Z,7.80
2022-08-19T11:18:41.221Z,7.80
2022-08-19T11:21:34.594Z,7.32
2022-08-19T11:24:26.776Z,8.03
2022-08-19T11:27:16.999Z,8.13
2022-08-19T11:30:08.592Z,7.85
2022-08-19T11:33:04.605Z,8.35
2022-08-19T11:35:58.745Z,8.70
2022-08-19T11:38:50.562Z,9.23
2022-08-19T11:41:41.089Z,8.27
2022-08-19T11:44:31.366Z,9.40
2022-08-19T11:47:22.159Z,8.93
2022-08-19T11:50:12.546Z,8.65
2022-08-19T11:53:02.964Z,9.07
2022-08-19T11:55:56.802Z,9.80
2022-08-19T11:58:47.761Z,9.43
2022-08-19T12:01:38.020Z,9.23
2022-08-19T12:04:28.345Z,9.93
2022-08-19T12:07:18.650Z,9.57
2022-08-19T12:10:09.400Z,9.48
2022-08-19T12:13:01.880Z,9.52
2022-08-19T12:15:52.539Z,8.30
2022-08-19T12:18:47.454Z,8.77
2022-08-19T12:21:37.637Z,8.50
2022-08-19T12:24:28.093Z,9.45
2022-08-19T12:27:31.952Z,8.15
2022-08-19T12:30:28.732Z,8.02
2022-08-19T12:33:20.495Z,7.57
2022-08-19T12:36:13.940Z,8.93
2022-08-19T12:39:05.347Z,9.68
2022-08-19T12:41:55.777Z,9.18
2022-08-19T12:44:46.264Z,8.73
2022-08-19T12:47:37.992Z,8.85
2022-08-19T12:50:31.541Z,7.10
2022-08-19T12:53:22.097Z,6.30
2022-08-19T12:56:15.585Z,6.63
2022-08-19T12:59:06.282Z,5.88
2022-08-19T13:01:56.490Z,6.80
2022-08-19T13:04:47.541Z,7.63
2022-08-19T13:07:39.614Z,8.02
2022-08-19T13:10:35.677Z,8.45
2022-08-19T13:13:27.050Z,8.48
2022-08-19T13:16:18.231Z,8.50
2022-08-19T13:19:08.499Z,8.57
2022-08-19T13:22:00.146Z,8.75
2022-08-19T13:24:50.438Z,7.95
2022-08-19T13:27:41.519Z,8.15
2022-08-19T13:30:50.558Z,8.60
2022-08-19T13:33:40.783Z,8.65
2022-08-19T13:36:30.817Z,7.82
2022-08-19T13:39:21.561Z,7.82
2022-08-19T13:42:14.885Z,7.03
2022-08-19T13:45:07.734Z,6.75
2022-08-19T13:47:59.716Z,6.43
2022-08-19T13:50:50.109Z,7.32
2022-08-19T13:53:40.537Z,7.50
2022-08-19T13:56:30.700Z,8.48
2022-08-19T13:59:21.084Z,9.20
2022-08-19T14:02:11.740Z,8.85
2022-08-19T14:05:01.974Z,8.70
2022-08-19T14:07:52.736Z,8.48
2022-08-19T14:10:45.266Z,8.65
2022-08-19T14:13:35.896Z,8.55
2022-08-19T14:16:26.180Z,8.95
2022-08-19T14:19:16.355Z,10.40
2022-08-19T14:22:06.841Z,10.98
2022-08-19T14:24:58.252Z,12.73
2022-08-19T14:27:49.272Z,13.73
2022-08-19T14:30:39.399Z,14.93
2022-08-19T14:33:30.555Z,16.35
2022-08-19T14:36:22.005Z,16.98
2022-08-19T14:39:12.495Z,17.13
2022-08-19T14:42:09.313Z,18.17
2022-08-19T14:45:02.478Z,18.20
2022-08-19T14:47:53.436Z,18.58
2022-08-19T14:50:43.779Z,19.52
2022-08-19T14:53:35.243Z,17.73
2022-08-19T14:56:27.905Z,18.63
2022-08-19T14:59:18.051Z,18.50
2022-08-19T15:02:34.038Z,19.45
2022-08-19T15:05:18.539Z,20.27
2022-08-19T15:08:08.820Z,20.95
2022-08-19T15:10:59.819Z,19.73
2022-08-19T15:13:50.967Z,20.77
2022-08-19T15:16:42.769Z,20.67
2022-08-19T15:19:34.441Z,22.77
2022-08-19T15:22:24.696Z,22.63
2022-08-19T15:25:17.664Z,21.60
2022-08-19T15:28:08.280Z,22.65
2022-08-19T15:30:58.360Z,23.02
2022-08-19T15:33:49.937Z,22.60
2022-08-19T15:36:41.936Z,22.35
2022-08-19T15:39:33.351Z,25.58
2022-08-19T15:42:29.460Z,24.83
2022-08-19T15:45:22.292Z,24.58
2022-08-19T15:48:12.628Z,24.67
2022-08-19T15:51:02.921Z,23.50
2022-08-19T15:53:53.419Z,22.45
2022-08-19T15:57:06.596Z,23.98
2022-08-19T16:00:15.303Z,22.92
2022-08-19T16:03:25.576Z,22.23
2022-08-19T16:06:25.981Z,22.30
2022-08-19T16:09:23.540Z,21.92
2022-08-19T16:12:16.821Z,21.05
2022-08-19T16:15:09.144Z,21.42
2022-08-19T16:18:04.363Z,19.45
2022-08-19T16:20:54.532Z,19.30
2022-08-19T16:23:46.540Z,19.40
2022-08-19T16:26:37.150Z,18.88
2022-08-19T16:29:34.482Z,20.10
2022-08-19T16:32:29.202Z,18.23
2022-08-19T16:35:19.542Z,17.85
2022-08-19T16:38:09.918Z,18.48
2022-08-19T16:41:01.463Z,17.83
2022-08-19T16:43:52.572Z,18.75
2022-08-19T16:46:42.783Z,19.05
2022-08-19T16:49:53.465Z,19.90
2022-08-19T16:52:46.117Z,18.98
2022-08-19T16:55:36.501Z,18.92
2022-08-19T16:58:33.926Z,18.15
2022-08-19T17:01:24.181Z,15.82
2022-08-19T17:04:14.663Z,18.55
2022-08-19T17:07:05.620Z,18.23
2022-08-19T17:09:57.136Z,19.25
2022-08-19T17:12:47.411Z,19.25
2022-08-19T17:15:37.868Z,18.80
2022-08-19T17:18:29.769Z,18.83
2022-08-19T17:21:27.559Z,19.52
2022-08-19T17:24:17.801Z,17.30
2022-08-19T17:27:08.912Z,18.30
2022-08-19T17:30:00.952Z,17.77
2022-08-19T17:32:51.684Z,19.85
2022-08-19T17:35:43.658Z,20.15
2022-08-19T17:38:35.878Z,19.52
2022-08-19T17:41:27.252Z,19.33
2022-08-19T17:44:18.839Z,19.83
2022-08-19T17:47:08.675Z,18.92
2022-08-19T17:49:59.106Z,19.67
2022-08-19T17:52:52.466Z,19.48
2022-08-19T17:55:42.636Z,21.25
2022-08-19T17:58:40.432Z,21.23
2022-08-19T18:01:43.805Z,18.80
2022-08-19T18:04:46.872Z,19.63
2022-08-19T18:07:39.648Z,19.73
2022-08-19T18:10:35.640Z,20.60
2022-08-19T18:13:26.266Z,19.20
2022-08-19T18:16:18.716Z,18.75
2022-08-19T18:19:09.023Z,18.77
2022-08-19T18:21:59.290Z,18.23
2022-08-19T18:24:49.912Z,18.88
2022-08-19T18:27:40.226Z,19.15
2022-08-19T18:30:34.479Z,18.83
2022-08-19T18:33:25.629Z,18.55
2022-08-19T18:36:24.209Z,18.65
2022-08-19T18:39:44.217Z,19.27
2022-08-19T18:42:54.439Z,20.02
2022-08-19T18:46:03.801Z,19.67
2022-08-19T18:49:07.006Z,20.52
2022-08-19T18:51:57.752Z,20.05
2022-08-19T18:54:48.313Z,20.23
2022-08-19T18:57:38.599Z,19.05
2022-08-19T19:00:30.305Z,20.80
2022-08-19T19:03:20.683Z,19.45
2022-08-19T19:06:14.662Z,20.52
2022-08-19T19:09:08.269Z,19.95
2022-08-19T19:12:00.893Z,20.30
2022-08-19T19:14:51.146Z,20.25
2022-08-19T19:17:42.033Z,19.88
2022-08-19T19:20:35.336Z,20.42
2022-08-19T19:23:26.956Z,20.60
2022-08-19T19:26:17.678Z,20.67
2022-08-19T19:29:07.597Z,20.40
2022-08-19T19:31:58.016Z,20.60
2022-08-19T19:34:48.774Z,20.58
2022-08-19T19:37:38.995Z,20.40
2022-08-19T19:40:29.513Z,20.08
2022-08-19T19:43:19.986Z,20.15
2022-08-19T19:46:10.310Z,20.63
2022-08-19T19:49:00.541Z,19.77
2022-08-19T19:51:51.919Z,18.45
2022-08-19T19:54:42.097Z,19.33
2022-08-19T19:57:39.595Z,19.13
2022-08-19T20:00:30.163Z,19.80
2022-08-19T20:03:21.633Z,19.67
2022-08-19T20:06:14.217Z,19.63
2022-08-19T20:09:08.051Z,18.45
2022-08-19T20:11:58.385Z,20.05
2022-08-19T20:14:48.918Z,20.10
2022-08-19T20:17:42.295Z,19.10
2022-08-19T20:20:32.360Z,18.52
2022-08-19T20:23:23.143Z,16.05
2022-08-19T20:26:21.375Z,17.95
2022-08-19T20:29:39.572Z,18.33
2022-08-19T20:32:34.796Z,18.08
2022-08-19T20:35:24.936Z,17.73
2022-08-19T20:38:15.677Z,19.85
2022-08-19T20:41:07.138Z,18.90
2022-08-19T20:43:57.132Z,18.98
2022-08-19T20:46:55.601Z,17.67
2022-08-19T20:49:46.674Z,18.42
2022-08-19T20:52:38.293Z,19.08
2022-08-19T20:55:30.318Z,18.60
2022-08-19T20:58:22.253Z,20.45
2022-08-19T21:01:12.507Z,20.50
2022-08-19T21:04:03.390Z,21.40
2022-08-19T21:06:54.670Z,21.48
2022-08-19T21:09:45.215Z,19.55
2022-08-19T21:12:35.624Z,19.73
2022-08-19T21:15:25.672Z,18.77
2022-08-19T21:18:18.671Z,18.70
2022-08-19T21:21:09.167Z,19.25
2022-08-19T21:23:59.732Z,19.27
2022-08-19T21:26:51.460Z,19.73
2022-08-19T21:29:42.242Z,19.10
2022-08-19T21:32:34.740Z,18.25
2022-08-19T21:35:25.051Z,18.30
2022-08-19T21:38:15.448Z,17.73
2022-08-19T21:41:06.480Z,16.13
2022-08-19T21:43:57.019Z,14.98
2022-08-19T21:46:50.526Z,12.98
2022-08-19T21:49:41.317Z,9.05
2022-08-19T21:52:31.508Z,5.75
2022-08-19T21:55:21.717Z,4.00
2022-08-19T21:58:12.596Z,3.50
2022-08-19T22:01:06.271Z,3.03
2022-08-19T22:03:56.228Z,2.55
2022-08-19T22:06:46.964Z,2.20
2022-08-19T22:09:38.282Z,2.45
2022-08-19T22:12:31.598Z,2.20
2022-08-19T22:15:23.904Z,2.30
2022-08-19T22:18:17.860Z,2.47
2022-08-19T22:21:11.644Z,2.38
2022-08-19T22:24:01.806Z,2.42
2022-08-19T22:26:54.534Z,1.98
2022-08-19T22:29:44.546Z,2.40
2022-08-19T22:32:35.139Z,1.95
2022-08-19T22:35:25.954Z,2.22
2022-08-19T22:38:16.319Z,2.28
2022-08-19T22:41:07.963Z,2.33
2022-08-19T22:43:58.428Z,1.95
2022-08-19T22:46:49.398Z,1.92
2022-08-19T22:49:39.706Z,2.42
2022-08-19T22:52:30.081Z,2.35
2022-08-19T22:55:20.190Z,2.28
2022-08-19T22:58:10.647Z,2.40
2022-08-19T23:01:01.216Z,2.20
2022-08-19T23:03:51.322Z,1.95
2022-08-19T23:06:42.182Z,2.40
2022-08-19T23:09:32.436Z,2.70
2022-08-19T23:12:33.089Z,2.25
2022-08-19T23:15:26.063Z,2.25
2022-08-19T23:18:17.044Z,1.95
2022-08-19T23:21:09.592Z,2.47
2022-08-19T23:23:59.768Z,1.95
2022-08-19T23:27:08.943Z,1.98
2022-08-19T23:30:31.553Z,2.08
2022-08-19T23:33:26.012Z,1.88
2022-08-19T23:36:36.067Z,1.80
2022-08-19T23:39:29.762Z,1.73
2022-08-19T23:42:20.528Z,1.70
2022-08-19T23:45:11.037Z,1.50
2022-08-19T23:48:03.312Z,1.60
2022-08-19T23:50:54.121Z,1.38
2022-08-19T23:53:44.837Z,1.40
2022-08-19T23:56:35.235Z,1.52
2022-08-19T23:59:25.717Z,1.38
